sensor_id;sensor_type;location;lat;lon;timestamp;P1;durP1;ratioP1;P2;durP2;ratioP2
67768;SDS011;54569;52.018;5.584;2023-04-15T00:00:14;6.97;;;3.80;;
67768;SDS011;54569;52.018;5.584;2023-04-15T00:02:43;7.20;;;4.03;;
67768;SDS011;54569;52.018;5.584;2023-04-15T00:05:09;4.72;;;3.90;;
67768;SDS011;54569;52.018;5.584;2023-04-15T00:07:35;5.18;;;3.67;;
67768;SDS011;54569;52.018;5.584;2023-04-15T00:10:00;6.80;;;4.28;;
67768;SDS011;54569;52.018;5.584;2023-04-15T00:12:26;6.50;;;3.90;;
67768;SDS011;54569;52.018;5.584;2023-04-15T00:14:52;4.75;;;3.75;;
67768;SDS011;54569;52.018;5.584;2023-04-15T00:17:18;7.15;;;4.00;;
67768;SDS011;54569;52.018;5.584;2023-04-15T00:19:45;5.53;;;4.45;;
67768;SDS011;54569;52.018;5.584;2023-04-15T00:22:11;5.07;;;3.65;;
67768;SDS011;54569;52.018;5.584;2023-04-15T00:24:36;6.30;;;3.90;;
67768;SDS011;54569;52.018;5.584;2023-04-15T00:27:02;4.93;;;3.90;;
67768;SDS011;54569;52.018;5.584;2023-04-15T00:29:29;4.82;;;3.90;;
67768;SDS011;54569;52.018;5.584;2023-04-15T00:31:55;6.35;;;3.85;;
67768;SDS011;54569;52.018;5.584;2023-04-15T00:34:21;4.90;;;3.83;;
67768;SDS011;54569;52.018;5.584;2023-04-15T00:36:48;5.15;;;3.95;;
67768;SDS011;54569;52.018;5.584;2023-04-15T00:39:14;7.95;;;4.78;;
67768;SDS011;54569;52.018;5.584;2023-04-15T00:41:41;10.65;;;4.97;;
67768;SDS011;54569;52.018;5.584;2023-04-15T00:44:08;7.43;;;4.30;;
67768;SDS011;54569;52.018;5.584;2023-04-15T00:46:35;6.05;;;4.60;;
67768;SDS011;54569;52.018;5.584;2023-04-15T00:49:02;6.10;;;4.65;;
67768;SDS011;54569;52.018;5.584;2023-04-15T00:51:29;6.30;;;4.80;;
67768;SDS011;54569;52.018;5.584;2023-04-15T00:53:57;4.85;;;4.38;;
67768;SDS011;54569;52.018;5.584;2023-04-15T00:56:26;7.75;;;5.25;;
67768;SDS011;54569;52.018;5.584;2023-04-15T00:58:53;6.22;;;4.38;;
67768;SDS011;54569;52.018;5.584;2023-04-15T01:01:20;5.38;;;4.88;;
67768;SDS011;54569;52.018;5.584;2023-04-15T01:03:50;5.60;;;4.57;;
67768;SDS011;54569;52.018;5.584;2023-04-15T01:06:16;7.80;;;4.30;;
67768;SDS011;54569;52.018;5.584;2023-04-15T01:08:43;4.70;;;4.15;;
67768;SDS011;54569;52.018;5.584;2023-04-15T01:11:12;5.72;;;4.90;;
67768;SDS011;54569;52.018;5.584;2023-04-15T01:13:38;4.72;;;4.32;;
67768;SDS011;54569;52.018;5.584;2023-04-15T01:16:04;5.90;;;4.40;;
67768;SDS011;54569;52.018;5.584;2023-04-15T01:18:31;8.18;;;4.68;;
67768;SDS011;54569;52.018;5.584;2023-04-15T01:20:58;6.90;;;5.43;;
67768;SDS011;54569;52.018;5.584;2023-04-15T01:23:26;5.82;;;4.90;;
67768;SDS011;54569;52.018;5.584;2023-04-15T01:25:52;8.45;;;4.88;;
67768;SDS011;54569;52.018;5.584;2023-04-15T01:28:18;5.90;;;4.40;;
67768;SDS011;54569;52.018;5.584;2023-04-15T01:30:44;6.07;;;4.55;;
67768;SDS011;54569;52.018;5.584;2023-04-15T01:33:10;8.45;;;4.93;;
67768;SDS011;54569;52.018;5.584;2023-04-15T01:35:36;5.72;;;5.13;;
67768;SDS011;54569;52.018;5.584;2023-04-15T01:38:06;6.38;;;5.05;;
67768;SDS011;54569;52.018;5.584;2023-04-15T01:40:33;5.35;;;4.50;;
67768;SDS011;54569;52.018;5.584;2023-04-15T01:42:59;5.30;;;4.38;;
67768;SDS011;54569;52.018;5.584;2023-04-15T01:45:26;7.13;;;4.70;;
67768;SDS011;54569;52.018;5.584;2023-04-15T01:47:52;5.22;;;4.68;;
67768;SDS011;54569;52.018;5.584;2023-04-15T01:50:18;6.10;;;4.75;;
67768;SDS011;54569;52.018;5.584;2023-04-15T01:52:44;6.78;;;4.70;;
67768;SDS011;54569;52.018;5.584;2023-04-15T01:55:11;7.40;;;4.40;;
67768;SDS011;54569;52.018;5.584;2023-04-15T01:57:37;6.38;;;4.53;;
67768;SDS011;54569;52.018;5.584;2023-04-15T02:00:05;5.75;;;4.70;;
67768;SDS011;54569;52.018;5.584;2023-04-15T02:02:38;5.53;;;4.83;;
67768;SDS011;54569;52.018;5.584;2023-04-15T02:05:04;8.55;;;4.60;;
67768;SDS011;54569;52.018;5.584;2023-04-15T02:07:30;8.38;;;4.78;;
67768;SDS011;54569;52.018;5.584;2023-04-15T02:09:56;10.43;;;4.57;;
67768;SDS011;54569;52.018;5.584;2023-04-15T02:12:22;6.43;;;5.38;;
67768;SDS011;54569;52.018;5.584;2023-04-15T02:14:48;6.93;;;4.55;;
67768;SDS011;54569;52.018;5.584;2023-04-15T02:17:14;5.22;;;4.72;;
67768;SDS011;54569;52.018;5.584;2023-04-15T02:19:41;7.82;;;4.70;;
67768;SDS011;54569;52.018;5.584;2023-04-15T02:22:07;5.57;;;4.85;;
67768;SDS011;54569;52.018;5.584;2023-04-15T02:24:33;5.45;;;4.68;;
67768;SDS011;54569;52.018;5.584;2023-04-15T02:27:00;5.30;;;4.78;;
67768;SDS011;54569;52.018;5.584;2023-04-15T02:29:27;6.13;;;4.75;;
67768;SDS011;54569;52.018;5.584;2023-04-15T02:31:53;7.13;;;5.18;;
67768;SDS011;54569;52.018;5.584;2023-04-15T02:34:18;8.30;;;5.03;;
67768;SDS011;54569;52.018;5.584;2023-04-15T02:36:44;5.85;;;4.88;;
67768;SDS011;54569;52.018;5.584;2023-04-15T02:39:13;6.95;;;4.80;;
67768;SDS011;54569;52.018;5.584;2023-04-15T02:41:41;7.25;;;4.80;;
67768;SDS011;54569;52.018;5.584;2023-04-15T02:44:08;8.25;;;5.00;;
67768;SDS011;54569;52.018;5.584;2023-04-15T02:46:37;6.78;;;5.18;;
67768;SDS011;54569;52.018;5.584;2023-04-15T02:49:03;6.15;;;4.38;;
67768;SDS011;54569;52.018;5.584;2023-04-15T02:51:29;6.60;;;5.00;;
67768;SDS011;54569;52.018;5.584;2023-04-15T02:53:56;5.20;;;4.72;;
67768;SDS011;54569;52.018;5.584;2023-04-15T02:56:22;6.30;;;4.55;;
67768;SDS011;54569;52.018;5.584;2023-04-15T02:58:48;5.60;;;4.70;;
67768;SDS011;54569;52.018;5.584;2023-04-15T03:01:14;5.47;;;4.85;;
67768;SDS011;54569;52.018;5.584;2023-04-15T03:03:40;5.70;;;4.88;;
67768;SDS011;54569;52.018;5.584;2023-04-15T03:06:06;7.45;;;5.75;;
67768;SDS011;54569;52.018;5.584;2023-04-15T03:08:33;5.53;;;5.03;;
67768;SDS011;54569;52.018;5.584;2023-04-15T03:10:59;7.43;;;5.57;;
67768;SDS011;54569;52.018;5.584;2023-04-15T03:13:26;7.40;;;5.00;;
67768;SDS011;54569;52.018;5.584;2023-04-15T03:15:54;7.63;;;5.40;;
67768;SDS011;54569;52.018;5.584;2023-04-15T03:18:21;6.05;;;5.03;;
67768;SDS011;54569;52.018;5.584;2023-04-15T03:20:47;5.38;;;4.88;;
67768;SDS011;54569;52.018;5.584;2023-04-15T03:23:13;8.40;;;5.13;;
67768;SDS011;54569;52.018;5.584;2023-04-15T03:25:39;5.55;;;4.97;;
67768;SDS011;54569;52.018;5.584;2023-04-15T03:28:06;9.60;;;5.32;;
67768;SDS011;54569;52.018;5.584;2023-04-15T03:30:31;6.13;;;5.47;;
67768;SDS011;54569;52.018;5.584;2023-04-15T03:32:57;7.93;;;5.30;;
67768;SDS011;54569;52.018;5.584;2023-04-15T03:35:24;6.95;;;4.90;;
67768;SDS011;54569;52.018;5.584;2023-04-15T03:37:50;5.95;;;5.18;;
67768;SDS011;54569;52.018;5.584;2023-04-15T03:40:15;6.10;;;5.50;;
67768;SDS011;54569;52.018;5.584;2023-04-15T03:42:41;6.47;;;5.55;;
67768;SDS011;54569;52.018;5.584;2023-04-15T03:45:07;6.82;;;5.28;;
67768;SDS011;54569;52.018;5.584;2023-04-15T03:47:32;6.63;;;5.75;;
67768;SDS011;54569;52.018;5.584;2023-04-15T03:49:58;7.85;;;5.70;;
67768;SDS011;54569;52.018;5.584;2023-04-15T03:52:24;6.78;;;5.80;;
67768;SDS011;54569;52.018;5.584;2023-04-15T03:54:49;6.68;;;5.82;;
67768;SDS011;54569;52.018;5.584;2023-04-15T03:57:15;6.57;;;5.70;;
67768;SDS011;54569;52.018;5.584;2023-04-15T03:59:41;6.78;;;6.07;;
67768;SDS011;54569;52.018;5.584;2023-04-15T04:02:06;7.00;;;5.80;;
67768;SDS011;54569;52.018;5.584;2023-04-15T04:04:32;8.02;;;5.88;;
67768;SDS011;54569;52.018;5.584;2023-04-15T04:06:58;6.95;;;6.18;;
67768;SDS011;54569;52.018;5.584;2023-04-15T04:09:23;6.43;;;5.57;;
67768;SDS011;54569;52.018;5.584;2023-04-15T04:11:49;7.75;;;5.95;;
67768;SDS011;54569;52.018;5.584;2023-04-15T04:14:15;7.95;;;6.18;;
67768;SDS011;54569;52.018;5.584;2023-04-15T04:16:41;6.88;;;6.18;;
67768;SDS011;54569;52.018;5.584;2023-04-15T04:19:06;8.20;;;6.40;;
67768;SDS011;54569;52.018;5.584;2023-04-15T04:21:32;6.55;;;5.90;;
67768;SDS011;54569;52.018;5.584;2023-04-15T04:23:58;9.43;;;6.43;;
67768;SDS011;54569;52.018;5.584;2023-04-15T04:26:24;9.88;;;6.57;;
67768;SDS011;54569;52.018;5.584;2023-04-15T04:28:50;9.57;;;6.88;;
67768;SDS011;54569;52.018;5.584;2023-04-15T04:31:15;9.52;;;7.55;;
67768;SDS011;54569;52.018;5.584;2023-04-15T04:33:41;7.28;;;6.00;;
67768;SDS011;54569;52.018;5.584;2023-04-15T04:36:07;9.93;;;6.40;;
67768;SDS011;54569;52.018;5.584;2023-04-15T04:38:32;7.57;;;6.03;;
67768;SDS011;54569;52.018;5.584;2023-04-15T04:40:58;7.32;;;5.75;;
67768;SDS011;54569;52.018;5.584;2023-04-15T04:43:24;7.25;;;6.00;;
67768;SDS011;54569;52.018;5.584;2023-04-15T04:45:50;8.93;;;6.50;;
67768;SDS011;54569;52.018;5.584;2023-04-15T04:48:16;6.72;;;6.03;;
67768;SDS011;54569;52.018;5.584;2023-04-15T04:50:41;8.40;;;6.28;;
67768;SDS011;54569;52.018;5.584;2023-04-15T04:53:08;8.52;;;6.50;;
67768;SDS011;54569;52.018;5.584;2023-04-15T04:55:34;8.75;;;6.40;;
67768;SDS011;54569;52.018;5.584;2023-04-15T04:58:14;11.77;;;6.65;;
67768;SDS011;54569;52.018;5.584;2023-04-15T05:00:40;9.27;;;6.78;;
67768;SDS011;54569;52.018;5.584;2023-04-15T05:03:08;8.13;;;5.88;;
67768;SDS011;54569;52.018;5.584;2023-04-15T05:05:33;9.05;;;6.55;;
67768;SDS011;54569;52.018;5.584;2023-04-15T05:08:01;8.75;;;6.68;;
67768;SDS011;54569;52.018;5.584;2023-04-15T05:10:26;6.75;;;6.05;;
67768;SDS011;54569;52.018;5.584;2023-04-15T05:12:52;9.05;;;6.50;;
67768;SDS011;54569;52.018;5.584;2023-04-15T05:15:18;8.60;;;6.82;;
67768;SDS011;54569;52.018;5.584;2023-04-15T05:17:47;7.70;;;6.47;;
67768;SDS011;54569;52.018;5.584;2023-04-15T05:20:13;9.27;;;6.88;;
67768;SDS011;54569;52.018;5.584;2023-04-15T05:22:38;8.43;;;6.65;;
67768;SDS011;54569;52.018;5.584;2023-04-15T05:25:04;9.20;;;6.75;;
67768;SDS011;54569;52.018;5.584;2023-04-15T05:27:30;10.27;;;6.82;;
67768;SDS011;54569;52.018;5.584;2023-04-15T05:29:55;8.32;;;6.65;;
67768;SDS011;54569;52.018;5.584;2023-04-15T05:32:21;9.13;;;7.00;;
67768;SDS011;54569;52.018;5.584;2023-04-15T05:34:47;7.88;;;6.60;;
67768;SDS011;54569;52.018;5.584;2023-04-15T05:37:12;7.35;;;6.30;;
67768;SDS011;54569;52.018;5.584;2023-04-15T05:39:38;7.68;;;6.85;;
67768;SDS011;54569;52.018;5.584;2023-04-15T05:42:04;7.05;;;6.35;;
67768;SDS011;54569;52.018;5.584;2023-04-15T05:44:30;7.93;;;7.10;;
67768;SDS011;54569;52.018;5.584;2023-04-15T05:46:56;8.80;;;7.35;;
67768;SDS011;54569;52.018;5.584;2023-04-15T05:49:22;8.25;;;6.82;;
67768;SDS011;54569;52.018;5.584;2023-04-15T05:51:47;9.45;;;6.93;;
67768;SDS011;54569;52.018;5.584;2023-04-15T05:54:13;9.88;;;7.00;;
67768;SDS011;54569;52.018;5.584;2023-04-15T05:56:39;8.82;;;6.80;;
67768;SDS011;54569;52.018;5.584;2023-04-15T05:59:05;8.73;;;7.38;;
67768;SDS011;54569;52.018;5.584;2023-04-15T06:01:31;8.15;;;6.93;;
67768;SDS011;54569;52.018;5.584;2023-04-15T06:03:58;7.72;;;6.93;;
67768;SDS011;54569;52.018;5.584;2023-04-15T06:06:24;10.38;;;7.60;;
67768;SDS011;54569;52.018;5.584;2023-04-15T06:08:51;12.07;;;7.82;;
67768;SDS011;54569;52.018;5.584;2023-04-15T06:11:17;9.07;;;7.10;;
67768;SDS011;54569;52.018;5.584;2023-04-15T06:13:45;9.05;;;7.70;;
67768;SDS011;54569;52.018;5.584;2023-04-15T06:16:10;8.13;;;6.93;;
67768;SDS011;54569;52.018;5.584;2023-04-15T06:18:36;9.50;;;7.28;;
67768;SDS011;54569;52.018;5.584;2023-04-15T06:21:02;11.20;;;7.63;;
67768;SDS011;54569;52.018;5.584;2023-04-15T06:23:28;7.60;;;6.90;;
67768;SDS011;54569;52.018;5.584;2023-04-15T06:25:54;9.75;;;8.00;;
67768;SDS011;54569;52.018;5.584;2023-04-15T06:28:20;9.02;;;7.25;;
67768;SDS011;54569;52.018;5.584;2023-04-15T06:30:45;10.25;;;7.40;;
67768;SDS011;54569;52.018;5.584;2023-04-15T06:33:11;13.73;;;8.48;;
67768;SDS011;54569;52.018;5.584;2023-04-15T06:35:37;10.90;;;7.50;;
67768;SDS011;54569;52.018;5.584;2023-04-15T06:38:03;14.23;;;7.68;;
67768;SDS011;54569;52.018;5.584;2023-04-15T06:40:29;13.32;;;8.05;;
67768;SDS011;54569;52.018;5.584;2023-04-15T06:42:55;9.75;;;7.47;;
67768;SDS011;54569;52.018;5.584;2023-04-15T06:45:20;12.32;;;8.40;;
67768;SDS011;54569;52.018;5.584;2023-04-15T06:47:46;8.32;;;6.78;;
67768;SDS011;54569;52.018;5.584;2023-04-15T06:50:12;11.15;;;7.50;;
67768;SDS011;54569;52.018;5.584;2023-04-15T06:52:38;8.13;;;7.32;;
67768;SDS011;54569;52.018;5.584;2023-04-15T06:55:04;9.63;;;7.93;;
67768;SDS011;54569;52.018;5.584;2023-04-15T06:57:31;8.07;;;7.28;;
67768;SDS011;54569;52.018;5.584;2023-04-15T06:59:56;8.35;;;7.50;;
67768;SDS011;54569;52.018;5.584;2023-04-15T07:02:22;7.75;;;7.05;;
67768;SDS011;54569;52.018;5.584;2023-04-15T07:04:47;10.32;;;7.55;;
67768;SDS011;54569;52.018;5.584;2023-04-15T07:07:13;9.85;;;7.28;;
67768;SDS011;54569;52.018;5.584;2023-04-15T07:09:39;8.18;;;7.15;;
67768;SDS011;54569;52.018;5.584;2023-04-15T07:12:05;11.05;;;7.93;;
67768;SDS011;54569;52.018;5.584;2023-04-15T07:14:31;9.30;;;8.32;;
67768;SDS011;54569;52.018;5.584;2023-04-15T07:16:56;9.02;;;8.07;;
67768;SDS011;54569;52.018;5.584;2023-04-15T07:19:22;10.57;;;7.43;;
67768;SDS011;54569;52.018;5.584;2023-04-15T07:21:48;11.50;;;7.93;;
67768;SDS011;54569;52.018;5.584;2023-04-15T07:24:13;8.15;;;7.20;;
67768;SDS011;54569;52.018;5.584;2023-04-15T07:26:43;9.52;;;7.72;;
67768;SDS011;54569;52.018;5.584;2023-04-15T07:29:09;9.00;;;7.82;;
67768;SDS011;54569;52.018;5.584;2023-04-15T07:31:35;8.10;;;7.13;;
67768;SDS011;54569;52.018;5.584;2023-04-15T07:34:01;10.63;;;6.95;;
67768;SDS011;54569;52.018;5.584;2023-04-15T07:36:28;8.23;;;7.43;;
67768;SDS011;54569;52.018;5.584;2023-04-15T07:38:54;9.75;;;7.15;;
67768;SDS011;54569;52.018;5.584;2023-04-15T07:41:20;7.80;;;5.97;;
67768;SDS011;54569;52.018;5.584;2023-04-15T07:43:56;9.20;;;5.60;;
67768;SDS011;54569;52.018;5.584;2023-04-15T07:46:22;5.93;;;4.72;;
67768;SDS011;54569;52.018;5.584;2023-04-15T07:48:49;5.43;;;4.13;;
67768;SDS011;54569;52.018;5.584;2023-04-15T07:51:15;4.72;;;4.30;;
67768;SDS011;54569;52.018;5.584;2023-04-15T07:53:41;5.50;;;4.85;;
67768;SDS011;54569;52.018;5.584;2023-04-15T07:56:08;5.45;;;4.95;;
67768;SDS011;54569;52.018;5.584;2023-04-15T07:58:34;6.03;;;4.80;;
67768;SDS011;54569;52.018;5.584;2023-04-15T08:01:00;5.25;;;4.75;;
67768;SDS011;54569;52.018;5.584;2023-04-15T08:03:26;5.57;;;4.90;;
67768;SDS011;54569;52.018;5.584;2023-04-15T08:05:51;5.45;;;4.65;;
67768;SDS011;54569;52.018;5.584;2023-04-15T08:08:18;5.50;;;5.00;;
67768;SDS011;54569;52.018;5.584;2023-04-15T08:10:44;5.43;;;4.68;;
67768;SDS011;54569;52.018;5.584;2023-04-15T08:13:09;5.32;;;4.82;;
67768;SDS011;54569;52.018;5.584;2023-04-15T08:15:35;6.30;;;5.28;;
67768;SDS011;54569;52.018;5.584;2023-04-15T08:18:02;5.72;;;5.20;;
67768;SDS011;54569;52.018;5.584;2023-04-15T08:20:27;5.82;;;5.15;;
67768;SDS011;54569;52.018;5.584;2023-04-15T08:22:54;6.60;;;5.60;;
67768;SDS011;54569;52.018;5.584;2023-04-15T08:25:20;6.00;;;5.40;;
67768;SDS011;54569;52.018;5.584;2023-04-15T08:27:46;8.68;;;5.78;;
67768;SDS011;54569;52.018;5.584;2023-04-15T08:30:12;6.55;;;5.47;;
67768;SDS011;54569;52.018;5.584;2023-04-15T08:32:38;6.40;;;5.70;;
67768;SDS011;54569;52.018;5.584;2023-04-15T08:35:03;7.88;;;5.40;;
67768;SDS011;54569;52.018;5.584;2023-04-15T08:37:29;6.38;;;5.03;;
67768;SDS011;54569;52.018;5.584;2023-04-15T08:39:56;5.28;;;4.78;;
67768;SDS011;54569;52.018;5.584;2023-04-15T08:42:27;4.78;;;4.38;;
67768;SDS011;54569;52.018;5.584;2023-04-15T08:44:59;5.10;;;4.60;;
67768;SDS011;54569;52.018;5.584;2023-04-15T08:47:27;6.20;;;4.90;;
67768;SDS011;54569;52.018;5.584;2023-04-15T08:49:55;5.15;;;4.22;;
67768;SDS011;54569;52.018;5.584;2023-04-15T08:52:23;4.55;;;4.15;;
67768;SDS011;54569;52.018;5.584;2023-04-15T08:54:50;6.50;;;4.50;;
67768;SDS011;54569;52.018;5.584;2023-04-15T08:57:23;5.38;;;4.85;;
67768;SDS011;54569;52.018;5.584;2023-04-15T08:59:53;6.05;;;5.13;;
67768;SDS011;54569;52.018;5.584;2023-04-15T09:02:21;5.28;;;4.78;;
67768;SDS011;54569;52.018;5.584;2023-04-15T09:04:48;6.82;;;5.38;;
67768;SDS011;54569;52.018;5.584;2023-04-15T09:07:13;6.13;;;5.07;;
67768;SDS011;54569;52.018;5.584;2023-04-15T09:09:39;5.97;;;4.75;;
67768;SDS011;54569;52.018;5.584;2023-04-15T09:12:06;4.85;;;4.45;;
67768;SDS011;54569;52.018;5.584;2023-04-15T09:14:33;6.03;;;4.60;;
67768;SDS011;54569;52.018;5.584;2023-04-15T09:17:00;5.68;;;4.85;;
67768;SDS011;54569;52.018;5.584;2023-04-15T09:19:27;5.03;;;4.60;;
67768;SDS011;54569;52.018;5.584;2023-04-15T09:21:54;6.18;;;4.82;;
67768;SDS011;54569;52.018;5.584;2023-04-15T09:24:21;5.25;;;4.85;;
67768;SDS011;54569;52.018;5.584;2023-04-15T09:26:47;5.47;;;4.97;;
67768;SDS011;54569;52.018;5.584;2023-04-15T09:29:17;5.68;;;5.15;;
67768;SDS011;54569;52.018;5.584;2023-04-15T09:31:44;5.47;;;4.18;;
67768;SDS011;54569;52.018;5.584;2023-04-15T09:34:09;4.93;;;3.47;;
67768;SDS011;54569;52.018;5.584;2023-04-15T09:36:37;2.97;;;2.78;;
67768;SDS011;54569;52.018;5.584;2023-04-15T09:39:16;3.80;;;3.00;;
67768;SDS011;54569;52.018;5.584;2023-04-15T09:41:42;4.68;;;2.60;;
67768;SDS011;54569;52.018;5.584;2023-04-15T09:44:24;2.95;;;2.65;;
67768;SDS011;54569;52.018;5.584;2023-04-15T09:46:51;3.75;;;3.45;;
67768;SDS011;54569;52.018;5.584;2023-04-15T09:49:16;3.55;;;3.25;;
67768;SDS011;54569;52.018;5.584;2023-04-15T09:51:42;3.08;;;2.67;;
67768;SDS011;54569;52.018;5.584;2023-04-15T09:54:08;3.08;;;2.72;;
67768;SDS011;54569;52.018;5.584;2023-04-15T09:56:34;2.65;;;2.45;;
67768;SDS011;54569;52.018;5.584;2023-04-15T09:59:04;2.78;;;2.50;;
67768;SDS011;54569;52.018;5.584;2023-04-15T10:01:30;2.55;;;2.20;;
67768;SDS011;54569;52.018;5.584;2023-04-15T10:03:56;2.78;;;2.38;;
67768;SDS011;54569;52.018;5.584;2023-04-15T10:06:24;2.20;;;2.10;;
67768;SDS011;54569;52.018;5.584;2023-04-15T10:08:51;2.20;;;2.10;;
67768;SDS011;54569;52.018;5.584;2023-04-15T10:11:18;2.15;;;2.05;;
67768;SDS011;54569;52.018;5.584;2023-04-15T10:13:45;2.40;;;2.20;;
67768;SDS011;54569;52.018;5.584;2023-04-15T10:16:13;2.35;;;2.08;;
67768;SDS011;54569;52.018;5.584;2023-04-15T10:18:44;2.55;;;2.10;;
67768;SDS011;54569;52.018;5.584;2023-04-15T10:21:17;2.65;;;2.47;;
67768;SDS011;54569;52.018;5.584;2023-04-15T10:23:44;3.08;;;2.88;;
67768;SDS011;54569;52.018;5.584;2023-04-15T10:26:11;3.20;;;3.00;;
67768;SDS011;54569;52.018;5.584;2023-04-15T10:28:39;4.50;;;3.20;;
67768;SDS011;54569;52.018;5.584;2023-04-15T10:31:05;2.97;;;2.67;;
67768;SDS011;54569;52.018;5.584;2023-04-15T10:33:31;2.05;;;1.95;;
67768;SDS011;54569;52.018;5.584;2023-04-15T10:35:59;2.80;;;2.60;;
67768;SDS011;54569;52.018;5.584;2023-04-15T10:41:20;3.58;;;2.42;;
67768;SDS011;54569;52.018;5.584;2023-04-15T10:44:03;2.80;;;2.60;;
67768;SDS011;54569;52.018;5.584;2023-04-15T10:49:08;2.58;;;2.38;;
67768;SDS011;54569;52.018;5.584;2023-04-15T10:51:39;3.35;;;2.83;;
67768;SDS011;54569;52.018;5.584;2023-04-15T10:54:39;3.55;;;3.25;;
67768;SDS011;54569;52.018;5.584;2023-04-15T10:59:30;3.22;;;2.92;;
67768;SDS011;54569;52.018;5.584;2023-04-15T11:01:57;3.88;;;2.97;;
67768;SDS011;54569;52.018;5.584;2023-04-15T11:07:37;2.90;;;2.70;;
67768;SDS011;54569;52.018;5.584;2023-04-15T11:12:37;2.97;;;2.78;;
67768;SDS011;54569;52.018;5.584;2023-04-15T11:20:37;3.05;;;2.28;;
67768;SDS011;54569;52.018;5.584;2023-04-15T11:23:05;3.47;;;2.65;;
67768;SDS011;54569;52.018;5.584;2023-04-15T11:25:31;2.80;;;2.55;;
67768;SDS011;54569;52.018;5.584;2023-04-15T11:27:59;2.88;;;2.58;;
67768;SDS011;54569;52.018;5.584;2023-04-15T11:30:28;2.40;;;2.20;;
67768;SDS011;54569;52.018;5.584;2023-04-15T11:33:03;2.85;;;2.05;;
67768;SDS011;54569;52.018;5.584;2023-04-15T11:35:32;2.50;;;2.30;;
67768;SDS011;54569;52.018;5.584;2023-04-15T11:38:07;2.35;;;2.25;;
67768;SDS011;54569;52.018;5.584;2023-04-15T11:40:34;2.67;;;2.30;;
67768;SDS011;54569;52.018;5.584;2023-04-15T11:43:03;2.42;;;2.22;;
67768;SDS011;54569;52.018;5.584;2023-04-15T11:45:33;2.20;;;2.10;;
67768;SDS011;54569;52.018;5.584;2023-04-15T11:48:12;2.22;;;2.13;;
67768;SDS011;54569;52.018;5.584;2023-04-15T11:50:38;9.75;;;3.58;;
67768;SDS011;54569;52.018;5.584;2023-04-15T11:53:06;6.88;;;2.90;;
67768;SDS011;54569;52.018;5.584;2023-04-15T11:55:46;9.73;;;5.20;;
67768;SDS011;54569;52.018;5.584;2023-04-15T11:58:13;2.97;;;2.30;;
67768;SDS011;54569;52.018;5.584;2023-04-15T12:03:24;8.15;;;4.03;;
67768;SDS011;54569;52.018;5.584;2023-04-15T12:13:55;2.47;;;2.30;;
67768;SDS011;54569;52.018;5.584;2023-04-15T12:16:21;2.42;;;2.22;;
67768;SDS011;54569;52.018;5.584;2023-04-15T12:18:51;3.65;;;2.17;;
67768;SDS011;54569;52.018;5.584;2023-04-15T12:21:23;3.15;;;2.47;;
67768;SDS011;54569;52.018;5.584;2023-04-15T12:23:52;3.10;;;2.80;;
67768;SDS011;54569;52.018;5.584;2023-04-15T12:26:25;4.82;;;2.55;;
67768;SDS011;54569;52.018;5.584;2023-04-15T12:28:59;2.67;;;2.47;;
67768;SDS011;54569;52.018;5.584;2023-04-15T12:31:26;4.55;;;2.80;;
67768;SDS011;54569;52.018;5.584;2023-04-15T12:33:59;4.25;;;2.90;;
67768;SDS011;54569;52.018;5.584;2023-04-15T12:36:25;1.77;;;1.60;;
67768;SDS011;54569;52.018;5.584;2023-04-15T12:38:52;5.28;;;4.88;;
67768;SDS011;54569;52.018;5.584;2023-04-15T12:41:23;2.97;;;1.90;;
67768;SDS011;54569;52.018;5.584;2023-04-15T12:43:49;2.90;;;2.10;;
67768;SDS011;54569;52.018;5.584;2023-04-15T12:46:16;3.00;;;2.70;;
67768;SDS011;54569;52.018;5.584;2023-04-15T12:48:41;3.10;;;2.60;;
67768;SDS011;54569;52.018;5.584;2023-04-15T12:51:07;2.38;;;1.75;;
67768;SDS011;54569;52.018;5.584;2023-04-15T12:53:33;3.60;;;3.25;;
67768;SDS011;54569;52.018;5.584;2023-04-15T12:55:58;3.63;;;1.85;;
67768;SDS011;54569;52.018;5.584;2023-04-15T12:58:24;1.90;;;1.67;;
67768;SDS011;54569;52.018;5.584;2023-04-15T13:00:50;1.52;;;1.42;;
67768;SDS011;54569;52.018;5.584;2023-04-15T13:03:15;1.77;;;1.50;;
67768;SDS011;54569;52.018;5.584;2023-04-15T13:05:41;2.60;;;1.55;;
67768;SDS011;54569;52.018;5.584;2023-04-15T13:08:07;2.42;;;1.75;;
67768;SDS011;54569;52.018;5.584;2023-04-15T13:10:34;1.60;;;1.50;;
67768;SDS011;54569;52.018;5.584;2023-04-15T13:13:02;2.78;;;1.63;;
67768;SDS011;54569;52.018;5.584;2023-04-15T13:15:28;2.65;;;1.25;;
67768;SDS011;54569;52.018;5.584;2023-04-15T13:17:54;1.95;;;1.20;;
67768;SDS011;54569;52.018;5.584;2023-04-15T13:20:20;3.55;;;1.05;;
67768;SDS011;54569;52.018;5.584;2023-04-15T13:22:46;1.98;;;1.50;;
67768;SDS011;54569;52.018;5.584;2023-04-15T13:25:11;1.60;;;1.50;;
67768;SDS011;54569;52.018;5.584;2023-04-15T13:27:37;1.25;;;1.20;;
67768;SDS011;54569;52.018;5.584;2023-04-15T13:30:03;1.40;;;1.25;;
67768;SDS011;54569;52.018;5.584;2023-04-15T13:32:30;1.48;;;1.23;;
67768;SDS011;54569;52.018;5.584;2023-04-15T13:34:55;2.22;;;1.20;;
67768;SDS011;54569;52.018;5.584;2023-04-15T13:37:25;2.75;;;1.30;;
67768;SDS011;54569;52.018;5.584;2023-04-15T13:39:52;2.83;;;1.15;;
67768;SDS011;54569;52.018;5.584;2023-04-15T13:42:18;3.05;;;1.38;;
67768;SDS011;54569;52.018;5.584;2023-04-15T13:44:43;1.27;;;1.15;;
67768;SDS011;54569;52.018;5.584;2023-04-15T13:47:09;2.13;;;1.23;;
67768;SDS011;54569;52.018;5.584;2023-04-15T13:49:38;3.22;;;1.40;;
67768;SDS011;54569;52.018;5.584;2023-04-15T13:52:04;1.73;;;1.10;;
67768;SDS011;54569;52.018;5.584;2023-04-15T13:54:30;1.25;;;1.20;;
67768;SDS011;54569;52.018;5.584;2023-04-15T13:56:56;2.47;;;1.83;;
67768;SDS011;54569;52.018;5.584;2023-04-15T13:59:22;2.65;;;1.63;;
67768;SDS011;54569;52.018;5.584;2023-04-15T14:01:48;1.55;;;1.23;;
67768;SDS011;54569;52.018;5.584;2023-04-15T14:04:13;1.85;;;1.45;;
67768;SDS011;54569;52.018;5.584;2023-04-15T14:06:39;1.35;;;1.27;;
67768;SDS011;54569;52.018;5.584;2023-04-15T14:09:05;2.63;;;1.42;;
67768;SDS011;54569;52.018;5.584;2023-04-15T14:11:30;2.80;;;1.60;;
67768;SDS011;54569;52.018;5.584;2023-04-15T14:13:56;1.60;;;1.38;;
67768;SDS011;54569;52.018;5.584;2023-04-15T14:16:22;1.65;;;0.90;;
67768;SDS011;54569;52.018;5.584;2023-04-15T14:18:47;1.20;;;1.02;;
67768;SDS011;54569;52.018;5.584;2023-04-15T14:21:13;2.58;;;1.35;;
67768;SDS011;54569;52.018;5.584;2023-04-15T14:23:39;1.20;;;1.10;;
67768;SDS011;54569;52.018;5.584;2023-04-15T14:26:05;2.88;;;1.35;;
67768;SDS011;54569;52.018;5.584;2023-04-15T14:28:30;4.85;;;1.27;;
67768;SDS011;54569;52.018;5.584;2023-04-15T14:30:56;2.33;;;1.50;;
67768;SDS011;54569;52.018;5.584;2023-04-15T14:33:22;3.63;;;1.33;;
67768;SDS011;54569;52.018;5.584;2023-04-15T14:35:48;4.68;;;1.58;;
67768;SDS011;54569;52.018;5.584;2023-04-15T14:38:15;2.13;;;1.38;;
67768;SDS011;54569;52.018;5.584;2023-04-15T14:40:40;7.40;;;1.70;;
67768;SDS011;54569;52.018;5.584;2023-04-15T14:43:06;1.80;;;1.27;;
67768;SDS011;54569;52.018;5.584;2023-04-15T14:45:32;4.63;;;1.60;;
67768;SDS011;54569;52.018;5.584;2023-04-15T14:47:58;2.13;;;1.48;;
67768;SDS011;54569;52.018;5.584;2023-04-15T14:50:24;4.50;;;1.52;;
67768;SDS011;54569;52.018;5.584;2023-04-15T14:52:50;3.22;;;1.60;;
67768;SDS011;54569;52.018;5.584;2023-04-15T14:55:15;2.38;;;1.67;;
67768;SDS011;54569;52.018;5.584;2023-04-15T14:57:41;2.55;;;1.90;;
67768;SDS011;54569;52.018;5.584;2023-04-15T15:00:08;2.17;;;1.67;;
67768;SDS011;54569;52.018;5.584;2023-04-15T15:02:35;3.25;;;1.70;;
67768;SDS011;54569;52.018;5.584;2023-04-15T15:05:02;1.77;;;1.60;;
67768;SDS011;54569;52.018;5.584;2023-04-15T15:07:27;2.65;;;1.60;;
67768;SDS011;54569;52.018;5.584;2023-04-15T15:09:53;4.40;;;1.75;;
67768;SDS011;54569;52.018;5.584;2023-04-15T15:12:19;3.75;;;1.73;;
67768;SDS011;54569;52.018;5.584;2023-04-15T15:14:47;2.65;;;1.92;;